Serangoon, Singapore
Current Conditions -  °F | °C
As of 6:00 AM on Saturday 01 Nov 2014 (Local Time) from WSAP Reporting Station
Broken Clouds Broken Clouds  
Wind Chill: 81°   Ceiling: 15000
Heat Index: 87°   Visibility: 5mi
Dew Point: 77°   Wind: 1mph
Humidity: 89%   Direction: 340°NNW
Pressure: 29.77"   Gusts: NA
Location:  1.37°N, 103.88°E
Report Text: WSAP 312200Z 34001KT 8000FEW018 BKN150 27/25 Q1008
Loading
Personal Weather Stations






























Interactive Weather Map
Tropical Storm Tracking
New forecast layout! Learn more

10-Day Weather Forecast

Advertisements
Track Severe Weather on mobile